Time;durP1;ratioP1;P1;durP2;ratioP2;P2;SDS_P1;SDS_P2;PMS_P1;PMS_P2;Temp;Humidity;BMP_temperature;BMP_pressure;BME280_temperature;BME280_humidity;BME280_pressure;Samples;Min_cycle;Max_cycle;Signal;HPM_P1;HPM_P2
2022/07/04 00:00:00;;;;;;;0.70;0.70;;;21.60;99.90;;;;;;4127986;28;20068;-46
2022/07/04 00:02:21;;;;;;;2.25;0.85;;;21.50;99.90;;;;;;4127953;28;20559;-46
2022/07/04 00:04:41;;;;;;;4.70;0.80;;;21.30;99.90;;;;;;4127800;28;20056;-46
2022/07/04 00:07:03;;;;;;;1.10;1.10;;;21.30;99.90;;;;;;4129510;28;20598;-46
2022/07/04 00:09:23;;;;;;;2.63;0.70;;;21.30;99.90;;;;;;4142242;28;20044;-46
2022/07/04 00:11:44;;;;;;;1.75;0.80;;;21.30;99.90;;;;;;4128188;28;20054;-45
2022/07/04 00:14:05;;;;;;;0.93;0.90;;;21.20;99.90;;;;;;4127619;28;20556;-44
2022/07/04 00:16:26;;;;;;;1.02;0.80;;;21.20;99.90;;;;;;4127780;28;20120;-45
2022/07/04 00:18:47;;;;;;;3.58;1.25;;;21.20;99.90;;;;;;4128471;28;20218;-45
2022/07/04 00:21:07;;;;;;;1.20;0.73;;;21.10;99.90;;;;;;4129344;28;20050;-46
2022/07/04 00:23:28;;;;;;;2.05;0.70;;;21.00;99.90;;;;;;4130773;28;20465;-45
2022/07/04 00:25:49;;;;;;;2.30;0.80;;;21.10;99.90;;;;;;4131228;28;20053;-48
2022/07/04 00:28:10;;;;;;;2.47;0.70;;;21.10;99.90;;;;;;4131674;28;20085;-46
2022/07/04 00:30:31;;;;;;;0.70;0.70;;;21.10;99.90;;;;;;4128108;28;20606;-47
2022/07/04 00:32:51;;;;;;;0.95;0.77;;;21.00;99.90;;;;;;4136056;28;20401;-48
2022/07/04 00:35:12;;;;;;;0.80;0.80;;;20.90;99.90;;;;;;4131075;28;20445;-46
2022/07/04 00:37:33;;;;;;;0.70;0.70;;;20.90;99.90;;;;;;4131041;28;20116;-45
2022/07/04 00:39:55;;;;;;;1.92;0.80;;;20.90;99.90;;;;;;4114874;28;20101;-46
2022/07/04 00:42:15;;;;;;;0.80;0.80;;;20.80;99.90;;;;;;4124598;28;20089;-45
2022/07/04 00:44:36;;;;;;;1.05;0.90;;;20.80;99.90;;;;;;4143209;28;20050;-45
2022/07/04 00:46:57;;;;;;;3.67;0.90;;;20.80;99.90;;;;;;4131192;28;20096;-45
2022/07/04 00:49:18;;;;;;;1.60;0.80;;;20.90;99.90;;;;;;4132656;28;20080;-45
2022/07/04 00:51:39;;;;;;;1.20;0.80;;;21.00;99.90;;;;;;4147068;28;20056;-44
2022/07/04 00:54:00;;;;;;;0.85;0.80;;;20.90;99.90;;;;;;4146926;28;20045;-46
2022/07/04 00:56:25;;;;;;;2.55;0.80;;;20.80;99.90;;;;;;4147323;28;20049;-46
2022/07/04 00:58:46;;;;;;;0.80;0.80;;;20.90;99.90;;;;;;4145795;28;20054;-45
2022/07/04 01:01:07;;;;;;;6.07;1.23;;;20.80;99.90;;;;;;4147053;28;20053;-45
2022/07/04 01:03:28;;;;;;;2.70;1.08;;;20.70;99.90;;;;;;4146747;28;20045;-46
2022/07/04 01:05:49;;;;;;;1.33;0.90;;;20.60;99.90;;;;;;4146643;28;20045;-45
2022/07/04 01:08:11;;;;;;;2.92;0.80;;;20.40;99.90;;;;;;4136427;28;20128;-45
2022/07/04 01:10:32;;;;;;;1.60;1.20;;;20.40;99.90;;;;;;4130521;28;20045;-46
2022/07/04 01:12:54;;;;;;;1.23;1.00;;;20.30;99.90;;;;;;4114412;28;20097;-45
2022/07/04 01:15:14;;;;;;;0.80;0.80;;;20.40;99.90;;;;;;4114949;28;20127;-45
2022/07/04 01:17:36;;;;;;;1.30;1.20;;;20.20;99.90;;;;;;4127981;28;20161;-47
2022/07/04 01:19:57;;;;;;;2.25;0.90;;;20.10;99.90;;;;;;4146692;28;20165;-45
2022/07/04 01:22:19;;;;;;;1.67;0.90;;;20.00;99.90;;;;;;4146445;28;20472;-45
2022/07/04 01:24:40;;;;;;;1.85;1.05;;;19.90;99.90;;;;;;4146517;28;20064;-47
2022/07/04 01:27:01;;;;;;;2.35;1.00;;;20.00;99.90;;;;;;4114210;28;20513;-45
2022/07/04 01:29:21;;;;;;;1.98;0.82;;;20.00;99.90;;;;;;4113908;28;20071;-46
2022/07/04 01:31:42;;;;;;;1.23;1.13;;;20.20;99.90;;;;;;4114150;28;20101;-47
2022/07/04 01:34:03;;;;;;;2.05;0.90;;;20.20;99.90;;;;;;4113504;28;20129;-46
2022/07/04 01:36:24;;;;;;;4.63;0.90;;;20.10;99.90;;;;;;4114347;28;20715;-45
2022/07/04 01:38:45;;;;;;;3.63;1.48;;;20.00;99.90;;;;;;4114145;28;20057;-45
2022/07/04 01:41:05;;;;;;;1.48;0.90;;;19.90;99.90;;;;;;4113903;28;20058;-45
2022/07/04 01:43:26;;;;;;;1.17;1.10;;;20.00;99.90;;;;;;4125395;28;20092;-47
2022/07/04 01:45:47;;;;;;;1.05;0.80;;;19.90;99.90;;;;;;4114235;28;20057;-46
2022/07/04 01:48:09;;;;;;;1.60;1.00;;;19.80;99.90;;;;;;4123909;28;20142;-45
2022/07/04 01:50:30;;;;;;;1.33;0.90;;;19.70;99.90;;;;;;4137683;28;20045;-46
2022/07/04 01:52:50;;;;;;;0.80;0.80;;;19.60;99.90;;;;;;4129947;28;20899;-45
2022/07/04 01:55:11;;;;;;;1.67;1.13;;;19.60;99.90;;;;;;4129600;28;20062;-44
2022/07/04 01:57:32;;;;;;;1.00;1.00;;;19.70;99.90;;;;;;4129823;28;20126;-45
2022/07/04 02:02:32;;;;;;;1.15;1.13;;;19.80;99.90;;;;;;4129456;28;20101;-46
2022/07/04 02:04:52;;;;;;;0.93;0.90;;;19.70;99.90;;;;;;4113506;28;20418;-45
2022/07/04 02:07:13;;;;;;;0.90;0.90;;;19.70;99.90;;;;;;4111605;28;20056;-45
2022/07/04 02:09:34;;;;;;;1.73;0.90;;;19.50;99.90;;;;;;4142550;28;20121;-46
2022/07/04 02:14:34;;;;;;;1.10;0.98;;;19.20;99.90;;;;;;4113691;28;20054;-44
2022/07/04 02:16:55;;;;;;;0.90;0.90;;;19.10;99.90;;;;;;4125597;28;20138;-45
2022/07/04 02:19:16;;;;;;;0.90;0.90;;;19.00;99.90;;;;;;4141766;28;20050;-44
2022/07/04 02:21:36;;;;;;;1.80;1.00;;;19.00;99.90;;;;;;4131988;28;20097;-48
2022/07/04 02:23:57;;;;;;;1.08;1.00;;;19.10;99.90;;;;;;4114900;28;20532;-45
2022/07/04 02:26:18;;;;;;;1.10;1.05;;;19.00;99.90;;;;;;4129649;28;20053;-45
2022/07/04 02:28:39;;;;;;;1.95;1.00;;;19.10;99.90;;;;;;4129418;28;20105;-45
2022/07/04 02:30:59;;;;;;;1.38;1.05;;;19.20;99.90;;;;;;4129340;28;20065;-46
2022/07/04 02:33:20;;;;;;;1.42;1.33;;;19.20;99.90;;;;;;4129186;28;20096;-45
2022/07/04 02:35:41;;;;;;;0.90;0.90;;;19.10;99.90;;;;;;4129256;28;20483;-47
2022/07/04 02:38:01;;;;;;;1.45;0.90;;;19.20;99.90;;;;;;4128972;28;20052;-45
2022/07/04 02:40:22;;;;;;;2.55;1.13;;;19.30;99.90;;;;;;4129283;28;20073;-44
2022/07/04 02:42:43;;;;;;;3.72;1.30;;;19.30;99.90;;;;;;4129175;28;20603;-47
2022/07/04 02:45:05;;;;;;;3.00;1.10;;;19.10;99.90;;;;;;4138036;28;20058;-47
2022/07/04 02:47:26;;;;;;;2.33;1.17;;;19.10;99.90;;;;;;4129071;28;20069;-47
2022/07/04 02:49:46;;;;;;;2.05;0.90;;;19.10;99.90;;;;;;4134809;28;20056;-47
2022/07/04 02:52:07;;;;;;;2.70;1.10;;;19.10;99.90;;;;;;4133301;28;20100;-45
2022/07/04 02:54:28;;;;;;;0.90;0.90;;;19.10;99.90;;;;;;4129013;28;20052;-47
2022/07/04 02:56:48;;;;;;;1.60;0.90;;;19.20;99.90;;;;;;4129279;28;20125;-46
2022/07/04 02:59:09;;;;;;;2.40;1.10;;;19.20;99.90;;;;;;4112959;28;20131;-45
2022/07/04 03:01:31;;;;;;;1.38;0.90;;;19.10;99.90;;;;;;4122591;28;20057;-45
2022/07/04 03:03:51;;;;;;;2.08;0.90;;;19.00;99.90;;;;;;4128707;28;20108;-45
2022/07/04 03:06:12;;;;;;;1.35;1.35;;;18.90;99.90;;;;;;4128693;28;20134;-45
2022/07/04 03:08:33;;;;;;;2.00;1.45;;;18.90;99.90;;;;;;4141960;28;20049;-45
2022/07/04 03:10:54;;;;;;;1.38;0.90;;;18.80;99.90;;;;;;4135605;28;20141;-45
2022/07/04 03:13:15;;;;;;;1.50;1.10;;;18.60;99.90;;;;;;4129174;28;20053;-45
2022/07/04 03:15:36;;;;;;;1.77;1.10;;;18.60;99.90;;;;;;4128668;28;20105;-45
2022/07/04 03:17:57;;;;;;;1.33;1.33;;;18.60;99.90;;;;;;4134610;28;20058;-46
2022/07/04 03:20:18;;;;;;;1.30;1.30;;;18.50;99.90;;;;;;4128425;28;20105;-45
2022/07/04 03:22:38;;;;;;;1.23;1.00;;;18.60;99.90;;;;;;4128379;28;20117;-45
2022/07/04 03:24:59;;;;;;;1.20;1.10;;;18.50;99.90;;;;;;4128838;28;20122;-45
2022/07/04 03:27:20;;;;;;;1.58;0.90;;;18.50;99.90;;;;;;4128606;28;20524;-48
2022/07/04 03:29:41;;;;;;;1.13;1.13;;;18.40;99.90;;;;;;4128420;28;20057;-46
2022/07/04 03:32:02;;;;;;;3.40;1.10;;;18.40;99.90;;;;;;4128617;28;20049;-45
2022/07/04 03:34:23;;;;;;;2.10;1.10;;;18.40;99.90;;;;;;4112741;28;20054;-44
2022/07/04 03:36:43;;;;;;;1.27;1.17;;;18.50;99.90;;;;;;4123883;28;20054;-44
2022/07/04 03:39:04;;;;;;;1.60;1.50;;;18.30;99.90;;;;;;4128259;28;20057;-47
2022/07/04 03:41:24;;;;;;;3.80;1.38;;;18.30;99.90;;;;;;4128068;28;20057;-47
2022/07/04 03:43:45;;;;;;;1.67;1.02;;;18.20;99.90;;;;;;4128902;28;20698;-45
2022/07/04 03:46:06;;;;;;;2.22;1.10;;;18.10;99.90;;;;;;4134729;28;20061;-44
2022/07/04 03:48:27;;;;;;;2.97;1.20;;;18.10;99.90;;;;;;4128036;28;20056;-46
2022/07/04 03:50:48;;;;;;;1.15;1.00;;;18.10;99.90;;;;;;4142270;28;20578;-44
2022/07/04 03:53:09;;;;;;;3.90;1.42;;;18.10;99.90;;;;;;4129188;28;20568;-45
2022/07/04 03:55:29;;;;;;;1.38;1.27;;;18.10;99.90;;;;;;4127982;28;20430;-45
2022/07/04 03:57:50;;;;;;;2.45;1.10;;;18.10;99.90;;;;;;4127072;28;20100;-47
2022/07/04 04:00:12;;;;;;;1.55;1.23;;;18.10;99.90;;;;;;4128321;28;20060;-47
2022/07/04 04:02:33;;;;;;;1.77;1.50;;;18.10;99.90;;;;;;4128567;28;20057;-45
2022/07/04 04:07:36;;;;;;;4.60;1.10;;;18.10;99.90;;;;;;4130929;28;20042;-44
2022/07/04 04:09:57;;;;;;;1.20;1.10;;;18.20;99.90;;;;;;4128147;28;20061;-45
2022/07/04 04:12:18;;;;;;;1.08;1.08;;;18.20;99.90;;;;;;4128012;28;20120;-46
2022/07/04 04:14:39;;;;;;;1.13;1.13;;;18.20;99.90;;;;;;4128826;28;20473;-45
2022/07/04 04:17:00;;;;;;;5.88;1.02;;;18.30;99.90;;;;;;4127766;28;20130;-46
2022/07/04 04:19:20;;;;;;;1.02;1.00;;;18.30;99.90;;;;;;4128327;28;20165;-45
2022/07/04 04:21:41;;;;;;;1.25;1.10;;;18.30;99.90;;;;;;4127802;28;20065;-46
2022/07/04 04:24:03;;;;;;;1.45;1.35;;;18.30;99.90;;;;;;4111863;28;20105;-44
2022/07/04 04:26:24;;;;;;;1.25;1.10;;;18.30;99.90;;;;;;4111929;28;20113;-44
2022/07/04 04:28:44;;;;;;;3.83;1.20;;;18.20;99.90;;;;;;4112111;28;20569;-45
2022/07/04 04:31:05;;;;;;;1.20;1.10;;;18.30;99.90;;;;;;4111735;28;20585;-46
2022/07/04 04:33:26;;;;;;;1.80;1.30;;;18.30;99.90;;;;;;4112093;28;20053;-45
2022/07/04 04:35:46;;;;;;;1.80;1.65;;;18.20;99.90;;;;;;4112032;28;20742;-44
2022/07/04 04:38:07;;;;;;;1.10;1.00;;;18.30;99.90;;;;;;4111746;28;20062;-46
2022/07/04 04:40:28;;;;;;;1.20;1.10;;;18.40;99.90;;;;;;4111874;28;20062;-44
2022/07/04 04:42:49;;;;;;;2.55;1.00;;;18.50;99.90;;;;;;4112545;28;20061;-46
2022/07/04 04:45:10;;;;;;;1.02;1.02;;;18.40;99.90;;;;;;4127857;28;20124;-44
2022/07/04 04:47:30;;;;;;;2.70;2.17;;;18.40;99.90;;;;;;4095833;29;20065;-46
2022/07/04 04:49:51;;;;;;;3.08;1.20;;;18.50;99.90;;;;;;4110988;28;20057;-45
2022/07/04 04:52:12;;;;;;;1.55;1.27;;;18.60;99.90;;;;;;4124938;28;20049;-49
2022/07/04 04:54:35;;;;;;;1.95;1.23;;;18.70;99.90;;;;;;4111316;28;20134;-45
2022/07/04 04:56:56;;;;;;;1.10;1.10;;;18.70;99.90;;;;;;4111747;28;20113;-44
2022/07/04 04:59:17;;;;;;;2.40;1.38;;;18.70;99.90;;;;;;4111376;28;20135;-46
2022/07/04 05:01:38;;;;;;;1.38;1.30;;;18.70;99.90;;;;;;4111712;28;20138;-46
2022/07/04 05:04:02;;;;;;;2.70;1.33;;;18.70;99.90;;;;;;4111458;28;20153;-47
2022/07/04 05:06:23;;;;;;;3.72;2.28;;;18.60;99.90;;;;;;4111378;28;20885;-45
2022/07/04 05:08:43;;;;;;;1.58;1.48;;;18.60;99.90;;;;;;4121093;28;20410;-45
2022/07/04 05:11:04;;;;;;;1.77;1.67;;;18.60;99.90;;;;;;4118649;28;20105;-45
2022/07/04 05:13:25;;;;;;;3.10;1.70;;;18.60;99.90;;;;;;4098754;29;20051;-45
2022/07/04 05:15:46;;;;;;;2.97;1.13;;;18.60;99.90;;;;;;4111016;28;20533;-46
2022/07/04 05:18:06;;;;;;;2.13;2.03;;;18.70;99.90;;;;;;4118908;28;20049;-45
2022/07/04 05:20:27;;;;;;;5.65;1.45;;;18.70;99.90;;;;;;4114287;28;20430;-45
2022/07/04 05:22:48;;;;;;;1.75;1.50;;;18.70;99.90;;;;;;4105478;28;20113;-46
2022/07/04 05:25:08;;;;;;;3.67;1.38;;;18.80;99.90;;;;;;4124341;28;20061;-46
2022/07/04 05:27:30;;;;;;;1.02;1.02;;;18.90;99.90;;;;;;4130704;28;20049;-46
2022/07/04 05:29:51;;;;;;;3.10;1.70;;;19.00;99.90;;;;;;4116019;28;20058;-46
2022/07/04 05:32:14;;;;;;;2.45;1.33;;;19.00;99.90;;;;;;4114546;28;20050;-48
2022/07/04 05:34:35;;;;;;;2.58;1.17;;;19.10;99.90;;;;;;4124141;28;20069;-47
2022/07/04 05:36:56;;;;;;;2.70;1.10;;;19.10;99.90;;;;;;4130309;28;20057;-49
2022/07/04 05:39:17;;;;;;;2.92;1.40;;;19.20;99.90;;;;;;4130367;28;20517;-46
2022/07/04 05:41:37;;;;;;;1.00;1.00;;;19.30;99.90;;;;;;4130137;28;20113;-46
2022/07/04 05:43:58;;;;;;;1.33;1.02;;;19.50;99.90;;;;;;4131125;28;20065;-47
2022/07/04 05:46:19;;;;;;;1.10;1.10;;;19.60;99.90;;;;;;4130002;28;20100;-47
2022/07/04 05:48:40;;;;;;;1.45;1.30;;;19.80;99.90;;;;;;4129086;28;20113;-47
2022/07/04 05:51:02;;;;;;;1.83;1.10;;;20.00;99.90;;;;;;4131561;28;20056;-47
2022/07/04 05:53:22;;;;;;;2.97;0.90;;;20.10;99.90;;;;;;4129614;28;20052;-46
2022/07/04 05:55:43;;;;;;;3.83;1.75;;;20.20;99.90;;;;;;4129051;28;20339;-45
2022/07/04 05:58:04;;;;;;;2.20;1.10;;;20.40;99.90;;;;;;4130152;28;20061;-52
2022/07/04 06:00:25;;;;;;;1.50;0.90;;;20.50;99.90;;;;;;4129963;28;20133;-46
2022/07/04 06:02:45;;;;;;;2.65;1.13;;;20.70;99.90;;;;;;4129737;28;20166;-47
2022/07/04 06:05:06;;;;;;;1.83;1.38;;;20.90;99.90;;;;;;4130088;28;20126;-48
2022/07/04 06:07:27;;;;;;;2.58;1.25;;;21.10;99.90;;;;;;4134561;28;20049;-46
2022/07/04 06:09:48;;;;;;;3.05;1.10;;;21.20;99.90;;;;;;4129606;28;20469;-48
2022/07/04 06:12:09;;;;;;;1.10;0.90;;;21.40;99.90;;;;;;4129280;28;20891;-49
2022/07/04 06:14:29;;;;;;;2.50;1.20;;;21.70;99.90;;;;;;4130073;28;20109;-47
2022/07/04 06:16:51;;;;;;;1.90;0.90;;;21.60;99.90;;;;;;4114821;28;20061;-47
2022/07/04 06:19:12;;;;;;;1.38;1.05;;;21.60;99.90;;;;;;4136074;28;20097;-47
2022/07/04 06:21:32;;;;;;;1.42;1.33;;;21.70;99.90;;;;;;4129643;28;20104;-47
2022/07/04 06:23:54;;;;;;;2.67;0.90;;;22.00;99.90;;;;;;4113494;28;20577;-46
2022/07/04 06:26:14;;;;;;;0.90;0.90;;;22.30;99.90;;;;;;4113645;28;20136;-49
2022/07/04 06:28:35;;;;;;;0.90;0.90;;;22.60;99.90;;;;;;4113232;28;20139;-47
2022/07/04 06:31:12;;;;;;;1.50;0.85;;;22.80;99.90;;;;;;4113321;28;20046;-48
2022/07/04 06:35:44;;;;;;;1.95;0.90;;;22.80;99.90;;;;;;4113216;28;20049;-48
2022/07/04 06:36:13;;;;;;;2.22;0.80;;;22.80;99.90;;;;;;4097224;29;20109;-49
2022/07/04 06:38:34;;;;;;;2.15;0.90;;;22.90;99.90;;;;;;4108429;28;20514;-46
2022/07/04 06:40:57;;;;;;;0.90;0.90;;;23.00;99.90;;;;;;4113268;28;20085;-47
2022/07/04 06:43:18;;;;;;;2.80;0.90;;;23.00;99.90;;;;;;4117474;28;20060;-47
2022/07/04 06:45:39;;;;;;;2.58;0.80;;;23.10;99.90;;;;;;4097310;29;20718;-49
2022/07/04 06:48:07;;;;;;;2.15;0.77;;;23.30;99.90;;;;;;4107433;28;20664;-48
2022/07/04 06:50:27;;;;;;;1.08;0.73;;;23.60;99.90;;;;;;4119794;28;20053;-46
2022/07/04 06:53:00;;;;;;;1.85;0.70;;;24.00;99.90;;;;;;4112899;28;20113;-47
2022/07/04 06:55:21;;;;;;;1.60;0.80;;;24.60;99.90;;;;;;4097115;29;20050;-48
2022/07/04 06:57:41;;;;;;;1.50;1.15;;;24.60;99.90;;;;;;4108052;28;20170;-46
2022/07/04 07:00:06;;;;;;;1.40;0.70;;;25.00;99.90;;;;;;4112922;28;20685;-49
2022/07/04 07:02:27;;;;;;;2.20;0.70;;;25.30;99.90;;;;;;4112861;28;20128;-47
2022/07/04 07:04:47;;;;;;;2.45;0.70;;;25.60;99.90;;;;;;4096952;29;20054;-48
2022/07/04 07:07:09;;;;;;;1.30;0.70;;;25.60;99.90;;;;;;4108971;28;20861;-47
2022/07/04 07:09:29;;;;;;;1.85;0.80;;;25.90;99.90;;;;;;4125284;28;20109;-48
2022/07/04 07:11:50;;;;;;;0.75;0.70;;;26.10;99.90;;;;;;4112734;28;20429;-49
2022/07/04 07:14:11;;;;;;;0.80;0.70;;;26.40;99.90;;;;;;4112532;28;20506;-49
2022/07/04 07:16:32;;;;;;;1.67;1.58;;;26.40;99.90;;;;;;4112515;28;20082;-48
2022/07/04 07:18:52;;;;;;;1.30;0.60;;;26.50;99.90;;;;;;4098896;28;20058;-48
2022/07/04 07:21:13;;;;;;;1.42;0.60;;;26.40;99.90;;;;;;4112664;28;20093;-49
2022/07/04 07:23:33;;;;;;;0.85;0.60;;;26.60;99.90;;;;;;4125826;28;20097;-47
2022/07/04 07:25:55;;;;;;;0.88;0.60;;;26.70;99.90;;;;;;4128519;28;20052;-48
2022/07/04 07:28:18;;;;;;;1.48;0.60;;;26.90;99.90;;;;;;4128393;28;20109;-49
2022/07/04 07:30:38;;;;;;;0.70;0.70;;;27.10;99.40;;;;;;4127933;28;20100;-48
2022/07/04 07:32:59;;;;;;;3.30;0.60;;;27.10;99.90;;;;;;4128158;28;20057;-46
2022/07/04 07:35:21;;;;;;;2.22;0.93;;;27.40;99.90;;;;;;4128241;28;20045;-49
2022/07/04 07:37:41;;;;;;;1.38;0.60;;;27.50;99.00;;;;;;4128843;28;20429;-49
2022/07/04 07:40:02;;;;;;;2.17;0.60;;;27.60;99.20;;;;;;4112382;28;20050;-49
2022/07/04 07:42:25;;;;;;;3.45;0.50;;;28.10;96.10;;;;;;4123613;28;20056;-49
2022/07/04 07:44:46;;;;;;;;;;;28.30;97.00;;;;;;4117880;28;20517;-50
2022/07/04 07:47:07;;;;;;;0.50;0.50;;;28.70;97.40;;;;;;4128229;28;19936;-48
2022/07/04 07:49:33;;;;;;;1.48;0.50;;;28.90;96.00;;;;;;4132168;28;20077;-48
2022/07/04 07:51:56;;;;;;;2.65;0.60;;;29.20;95.90;;;;;;4132655;28;20052;-50
2022/07/04 07:54:17;;;;;;;0.60;0.60;;;29.40;96.70;;;;;;4128018;28;20049;-49
2022/07/04 07:56:51;;;;;;;2.03;0.60;;;29.30;96.60;;;;;;4127831;28;20108;-50
2022/07/04 07:59:12;;;;;;;0.80;0.50;;;29.20;95.30;;;;;;4118964;28;20048;-50
2022/07/04 08:01:33;;;;;;;4.72;0.50;;;29.20;96.20;;;;;;4132856;28;20126;-50
2022/07/04 08:06:36;;;;;;;0.50;0.50;;;29.40;96.00;;;;;;4128087;28;20413;-49
2022/07/04 08:08:57;;;;;;;1.85;0.60;;;29.90;96.80;;;;;;4111823;28;20058;-49
2022/07/04 08:11:18;;;;;;;2.35;0.50;;;30.00;95.80;;;;;;4124999;28;20077;-49
2022/07/04 08:13:40;;;;;;;1.15;0.50;;;30.40;93.60;;;;;;4127652;28;20089;-48
2022/07/04 08:16:00;;;;;;;0.50;0.50;;;30.50;93.40;;;;;;4128109;28;20057;-49
2022/07/04 08:18:22;;;;;;;0.50;0.50;;;30.70;95.60;;;;;;4127669;28;20457;-50
2022/07/04 08:20:43;;;;;;;2.92;0.60;;;31.00;92.50;;;;;;4127663;28;20482;-49
2022/07/04 08:23:20;;;;;;;1.02;0.50;;;31.00;93.20;;;;;;4127683;28;20479;-49
2022/07/04 08:25:41;;;;;;;0.68;0.50;;;30.90;92.20;;;;;;4127580;28;20138;-49
2022/07/04 08:28:03;;;;;;;0.50;0.50;;;30.70;93.60;;;;;;4128007;28;20437;-48
2022/07/04 08:30:23;;;;;;;2.58;0.50;;;30.70;94.20;;;;;;4127638;28;20093;-49
2022/07/04 08:32:44;;;;;;;0.98;0.47;;;31.10;93.80;;;;;;4127919;28;20137;-49
2022/07/04 08:35:05;;;;;;;1.77;0.50;;;31.50;92.70;;;;;;4127753;28;20520;-49
2022/07/04 08:37:26;;;;;;;2.45;0.60;;;31.60;93.40;;;;;;4111963;28;20695;-49
2022/07/04 08:39:46;;;;;;;0.50;0.50;;;31.50;93.90;;;;;;4123049;28;20105;-50
2022/07/04 08:42:19;;;;;;;0.55;0.50;;;31.40;93.00;;;;;;4129306;28;20088;-49
2022/07/04 08:44:44;;;;;;;0.60;0.47;;;31.80;93.20;;;;;;4146488;28;20112;-49
2022/07/04 08:47:09;;;;;;;1.17;0.60;;;31.90;93.80;;;;;;4115522;28;20131;-48
2022/07/04 08:49:43;;;;;;;0.52;0.40;;;31.70;92.00;;;;;;4132153;28;20096;-50
2022/07/04 08:52:06;;;;;;;3.45;0.50;;;32.00;93.60;;;;;;4139190;28;20082;-48
2022/07/04 08:59:50;;;;;;;0.93;0.68;;;32.20;93.10;;;;;;4114730;28;20102;-49
2022/07/04 09:02:13;;;;;;;1.33;0.45;;;32.30;93.60;;;;;;4126839;28;20100;-49
2022/07/04 09:04:35;;;;;;;0.52;0.40;;;32.40;92.70;;;;;;4130186;28;20057;-48
2022/07/04 09:06:57;;;;;;;1.70;0.57;;;32.50;93.10;;;;;;4131488;28;20058;-50
2022/07/04 09:09:18;;;;;;;1.15;0.50;;;32.70;92.10;;;;;;4114278;28;20138;-49
2022/07/04 09:11:40;;;;;;;0.40;0.40;;;32.40;92.70;;;;;;4125622;28;20054;-49
2022/07/04 09:14:00;;;;;;;1.50;0.50;;;32.50;92.70;;;;;;4130770;28;20112;-49
2022/07/04 09:16:21;;;;;;;2.08;0.50;;;32.50;91.60;;;;;;4130558;28;21127;-50
2022/07/04 09:18:42;;;;;;;2.47;0.55;;;32.70;92.40;;;;;;4145467;28;20096;-48
2022/07/04 09:21:08;;;;;;;1.77;0.50;;;32.90;92.30;;;;;;4136588;28;20088;-46
2022/07/04 09:23:31;;;;;;;0.77;0.52;;;33.20;92.20;;;;;;4129953;28;20532;-49
2022/07/04 09:26:11;;;;;;;0.75;0.40;;;33.30;92.10;;;;;;4130765;28;20146;-50
2022/07/04 09:28:31;;;;;;;2.25;0.50;;;32.50;91.20;;;;;;4130269;28;20710;-50
2022/07/04 09:30:52;;;;;;;1.67;0.43;;;33.00;90.60;;;;;;4130024;28;20053;-50
2022/07/04 09:33:13;;;;;;;3.60;1.00;;;33.40;91.20;;;;;;4130393;28;20052;-49
2022/07/04 09:35:34;;;;;;;2.05;0.57;;;33.40;91.40;;;;;;4115874;28;20542;-50
2022/07/04 09:38:00;;;;;;;1.05;0.50;;;33.30;91.20;;;;;;4114202;28;20820;-49
2022/07/04 09:40:22;;;;;;;0.68;0.50;;;33.20;89.40;;;;;;4125317;28;20046;-50
2022/07/04 09:42:43;;;;;;;1.02;0.50;;;33.70;89.40;;;;;;4129698;28;20060;-47
2022/07/04 09:45:10;;;;;;;0.70;0.40;;;34.00;89.60;;;;;;4146414;28;20583;-49
2022/07/04 09:47:31;;;;;;;2.05;0.75;;;33.60;87.10;;;;;;4114030;28;20125;-50
2022/07/04 09:50:22;;;;;;;5.32;0.50;;;34.00;88.20;;;;;;4131173;28;20108;-47
2022/07/04 09:52:55;;;;;;;1.48;0.40;;;34.40;88.60;;;;;;4079481;29;20476;-48
2022/07/04 09:55:30;;;;;;;0.30;0.30;;;34.60;86.50;;;;;;4079975;29;20147;-49
2022/07/04 09:57:53;;;;;;;0.40;0.40;;;34.00;85.10;;;;;;4079872;29;20070;-50
2022/07/04 10:00:23;;;;;;;2.05;0.43;;;34.10;87.00;;;;;;4079744;29;20131;-48
2022/07/04 10:02:44;;;;;;;0.38;0.30;;;34.10;86.60;;;;;;4079798;29;20179;-49
2022/07/04 10:05:07;;;;;;;0.55;0.43;;;34.20;86.20;;;;;;4079821;29;20095;-49
2022/07/04 10:07:35;;;;;;;6.57;0.40;;;34.30;86.70;;;;;;4079419;29;20058;-49
2022/07/04 10:09:56;;;;;;;1.35;0.40;;;34.20;84.60;;;;;;4079698;29;20095;-46
2022/07/04 10:12:27;;;;;;;2.33;0.30;;;34.10;83.30;;;;;;4066158;29;20070;-49
2022/07/04 10:14:49;;;;;;;0.50;0.40;;;34.00;83.40;;;;;;4064062;29;20115;-48
2022/07/04 10:17:09;;;;;;;0.45;0.38;;;34.40;83.60;;;;;;4066900;29;20555;-49
2022/07/04 10:19:32;;;;;;;3.45;0.50;;;34.40;81.30;;;;;;4079427;29;20103;-50
2022/07/04 10:21:53;;;;;;;0.40;0.40;;;34.90;84.80;;;;;;4079093;29;20735;-47
2022/07/04 10:24:16;;;;;;;2.00;0.40;;;35.10;82.50;;;;;;4095280;29;20118;-48
2022/07/04 10:26:36;;;;;;;0.40;0.40;;;34.70;79.80;;;;;;4094950;29;20094;-48
2022/07/04 10:28:58;;;;;;;0.38;0.38;;;34.40;81.80;;;;;;4102625;28;20426;-48
2022/07/04 10:31:21;;;;;;;1.15;0.45;;;34.90;79.20;;;;;;4124084;28;20057;-49
2022/07/04 10:33:43;;;;;;;1.83;0.50;;;34.80;82.00;;;;;;4122213;28;20053;-50
2022/07/04 10:36:17;;;;;;;0.77;0.40;;;35.30;78.90;;;;;;4118400;28;20532;-50
2022/07/04 10:39:00;;;;;;;1.55;0.82;;;35.10;79.40;;;;;;4113745;28;20081;-48
2022/07/04 10:41:23;;;;;;;1.80;0.40;;;35.30;80.60;;;;;;4117065;28;20137;-49
2022/07/04 10:44:13;;;;;;;0.93;0.30;;;35.70;77.20;;;;;;4123265;28;20113;-50
2022/07/04 10:46:35;;;;;;;1.58;0.40;;;35.70;76.10;;;;;;4117845;28;20570;-50
2022/07/04 10:48:59;;;;;;;0.40;0.30;;;35.80;76.80;;;;;;4132515;28;20140;-49
2022/07/04 10:51:41;;;;;;;0.35;0.30;;;35.70;73.00;;;;;;4113994;28;20061;-49
2022/07/04 10:54:12;;;;;;;0.60;0.30;;;35.70;72.60;;;;;;4128942;28;20054;-50
2022/07/04 10:56:37;;;;;;;1.98;0.30;;;36.20;75.00;;;;;;4127498;28;20372;-50
2022/07/04 10:58:58;;;;;;;1.85;0.32;;;36.40;75.80;;;;;;4128643;28;20092;-50
2022/07/04 11:01:19;;;;;;;0.30;0.30;;;36.80;74.30;;;;;;4128209;28;20080;-48
2022/07/04 11:03:54;;;;;;;1.27;0.37;;;36.60;75.80;;;;;;4129083;28;20085;-47
2022/07/04 11:06:33;;;;;;;1.60;0.30;;;36.10;70.40;;;;;;4111782;28;20106;-50
2022/07/04 11:09:13;;;;;;;3.72;0.30;;;36.10;73.30;;;;;;4126684;28;20105;-50
2022/07/04 11:11:59;;;;;;;1.40;0.60;;;35.90;70.50;;;;;;4126379;28;20536;-48
2022/07/04 11:14:43;;;;;;;2.90;0.30;;;35.40;70.80;;;;;;4128224;28;20069;-49
2022/07/04 11:17:36;;;;;;;2.28;0.38;;;35.60;73.70;;;;;;4130364;28;20314;-49
2022/07/04 11:20:00;;;;;;;3.45;0.38;;;35.40;68.40;;;;;;4144375;28;20528;-49
2022/07/04 11:22:23;;;;;;;0.50;0.30;;;35.60;66.70;;;;;;4127968;28;20606;-48
2022/07/04 11:24:43;;;;;;;1.95;0.30;;;35.80;65.90;;;;;;4128538;28;20136;-50
2022/07/04 11:27:08;;;;;;;0.22;0.22;;;36.00;73.20;;;;;;4128796;28;20520;-50
2022/07/04 11:29:30;;;;;;;0.30;0.30;;;36.40;67.00;;;;;;4128285;28;20049;-50
2022/07/04 11:31:51;;;;;;;;;;;36.40;68.00;;;;;;4128171;28;20481;-48
2022/07/04 11:34:13;;;;;;;1.45;0.30;;;36.10;70.50;;;;;;4124522;28;19932;-49
2022/07/04 11:36:33;;;;;;;0.40;0.40;;;36.80;69.50;;;;;;4125529;28;20568;-50
2022/07/04 11:38:59;;;;;;;4.85;0.40;;;37.20;69.20;;;;;;4126551;28;20068;-52
2022/07/04 11:46:48;;;;;;;3.67;0.40;;;37.70;68.50;;;;;;4128344;28;20064;-51
2022/07/04 11:49:12;;;;;;;1.38;0.30;;;37.70;67.10;;;;;;4128508;28;20650;-52
2022/07/04 11:51:32;;;;;;;0.57;0.30;;;37.80;67.30;;;;;;4144063;28;20528;-50
2022/07/04 11:54:06;;;;;;;6.65;0.50;;;37.90;65.20;;;;;;4144454;28;20350;-52
2022/07/04 11:56:47;;;;;;;10.95;0.95;;;38.20;66.30;;;;;;4144460;28;20453;-51
2022/07/04 11:59:15;;;;;;;2.25;0.40;;;38.00;63.40;;;;;;4129303;28;20096;-52
2022/07/04 12:01:36;;;;;;;9.27;0.52;;;37.80;65.30;;;;;;4144174;28;20088;-51
2022/07/04 12:04:10;;;;;;;7.47;0.60;;;38.00;61.80;;;;;;4126058;28;20057;-51
2022/07/04 12:06:31;;;;;;;8.05;0.52;;;37.90;60.10;;;;;;4128327;28;20610;-50
2022/07/04 12:08:51;;;;;;;6.68;0.70;;;37.70;59.20;;;;;;4143738;28;20053;-47
2022/07/04 12:11:12;;;;;;;7.82;1.30;;;38.10;59.70;;;;;;4139083;28;20049;-52
2022/07/04 12:13:33;;;;;;;8.40;0.77;;;38.50;60.30;;;;;;4127269;28;20513;-51
2022/07/04 12:15:56;;;;;;;2.78;0.50;;;38.90;59.70;;;;;;4127860;28;20132;-52
2022/07/04 12:18:24;;;;;;;15.32;0.60;;;38.70;62.40;;;;;;4140070;28;20393;-51
2022/07/04 12:20:47;;;;;;;7.35;0.50;;;38.70;57.50;;;;;;4134243;28;20499;-51
2022/07/04 12:23:09;;;;;;;9.27;0.90;;;38.50;57.90;;;;;;4127143;28;20116;-51
2022/07/04 12:25:38;;;;;;;;;;;38.20;57.30;;;;;;4123823;28;20425;-51
2022/07/04 12:28:07;;;;;;;8.05;1.25;;;38.10;60.20;;;;;;4126335;28;19928;-52
2022/07/04 12:30:30;;;;;;;10.48;0.70;;;38.30;58.40;;;;;;4122193;28;20056;-53
2022/07/04 12:32:53;;;;;;;30.23;1.08;;;38.60;56.80;;;;;;4124850;28;20069;-52
2022/07/04 12:35:32;;;;;;;10.95;0.88;;;38.70;56.90;;;;;;4127619;28;20417;-52
2022/07/04 12:38:08;;;;;;;8.15;1.27;;;38.60;56.50;;;;;;4126653;28;20104;-53
2022/07/04 12:40:29;;;;;;;20.85;1.20;;;38.50;58.20;;;;;;4119020;28;20092;-52
2022/07/04 12:42:49;;;;;;;15.95;1.27;;;38.70;58.30;;;;;;4139239;28;20049;-52
2022/07/04 12:45:10;;;;;;;16.45;0.60;;;39.30;58.60;;;;;;4125112;28;20266;-53